sensor_id;sensor_type;location;lat;lon;timestamp;pressure;altitude;pressure_sealevel;temperature;humidity
14269;BME280;7218;51.480;7.006;2022-08-05T00:00:59;100609.41;;;23.38;98.42
14269;BME280;7218;51.480;7.006;2022-08-05T00:03:26;100605.75;;;23.53;100.00
14269;BME280;7218;51.480;7.006;2022-08-05T00:05:53;100612.16;;;23.50;100.00
14269;BME280;7218;51.480;7.006;2022-08-05T00:08:20;100618.25;;;23.38;100.00
14269;BME280;7218;51.480;7.006;2022-08-05T00:10:46;100614.34;;;23.44;100.00
14269;BME280;7218;51.480;7.006;2022-08-05T00:13:14;100612.31;;;23.35;100.00
14269;BME280;7218;51.480;7.006;2022-08-05T00:15:40;100609.97;;;23.43;100.00
14269;BME280;7218;51.480;7.006;2022-08-05T00:20:39;100617.03;;;23.17;100.00
14269;BME280;7218;51.480;7.006;2022-08-05T00:23:06;100609.91;;;23.17;100.00
14269;BME280;7218;51.480;7.006;2022-08-05T00:25:32;100611.59;;;23.18;100.00
14269;BME280;7218;51.480;7.006;2022-08-05T00:27:59;100617.72;;;23.06;100.00
14269;BME280;7218;51.480;7.006;2022-08-05T00:30:27;100622.66;;;23.12;100.00
14269;BME280;7218;51.480;7.006;2022-08-05T00:32:53;100625.13;;;23.15;100.00
14269;BME280;7218;51.480;7.006;2022-08-05T00:35:20;100633.41;;;23.11;100.00
14269;BME280;7218;51.480;7.006;2022-08-05T00:37:46;100630.75;;;23.11;100.00
14269;BME280;7218;51.480;7.006;2022-08-05T00:40:13;100622.25;;;23.18;100.00
14269;BME280;7218;51.480;7.006;2022-08-05T00:42:39;100623.56;;;23.26;100.00
14269;BME280;7218;51.480;7.006;2022-08-05T00:45:07;100623.19;;;23.17;100.00
14269;BME280;7218;51.480;7.006;2022-08-05T00:47:35;100614.06;;;23.22;100.00
14269;BME280;7218;51.480;7.006;2022-08-05T00:50:02;100621.31;;;23.20;100.00
14269;BME280;7218;51.480;7.006;2022-08-05T00:52:28;100630.63;;;23.12;100.00
14269;BME280;7218;51.480;7.006;2022-08-05T00:54:55;100626.72;;;23.18;100.00
14269;BME280;7218;51.480;7.006;2022-08-05T00:57:21;100633.75;;;23.19;100.00
14269;BME280;7218;51.480;7.006;2022-08-05T00:59:48;100632.41;;;23.26;100.00
14269;BME280;7218;51.480;7.006;2022-08-05T01:02:14;100636.09;;;23.24;100.00
14269;BME280;7218;51.480;7.006;2022-08-05T01:04:42;100628.13;;;23.24;100.00
14269;BME280;7218;51.480;7.006;2022-08-05T01:07:09;100629.94;;;23.23;100.00
14269;BME280;7218;51.480;7.006;2022-08-05T01:09:35;100630.13;;;23.20;100.00
14269;BME280;7218;51.480;7.006;2022-08-05T01:12:06;100637.38;;;23.18;100.00
14269;BME280;7218;51.480;7.006;2022-08-05T01:14:37;100645.81;;;23.25;100.00
14269;BME280;7218;51.480;7.006;2022-08-05T01:17:08;100639.94;;;23.20;100.00
14269;BME280;7218;51.480;7.006;2022-08-05T01:19:41;100636.50;;;23.17;100.00
14269;BME280;7218;51.480;7.006;2022-08-05T01:22:22;100625.47;;;23.24;100.00
14269;BME280;7218;51.480;7.006;2022-08-05T01:25:04;100620.53;;;23.17;100.00
14269;BME280;7218;51.480;7.006;2022-08-05T01:28:03;100625.47;;;23.24;100.00
14269;BME280;7218;51.480;7.006;2022-08-05T01:30:35;100629.69;;;23.13;100.00
14269;BME280;7218;51.480;7.006;2022-08-05T01:33:06;100632.91;;;23.18;100.00
14269;BME280;7218;51.480;7.006;2022-08-05T01:35:37;100642.22;;;23.11;100.00
14269;BME280;7218;51.480;7.006;2022-08-05T01:38:05;100635.06;;;22.99;100.00
14269;BME280;7218;51.480;7.006;2022-08-05T01:40:33;100638.09;;;22.93;100.00
14269;BME280;7218;51.480;7.006;2022-08-05T01:43:03;100640.13;;;23.16;100.00
14269;BME280;7218;51.480;7.006;2022-08-05T01:45:30;100633.19;;;23.14;100.00
14269;BME280;7218;51.480;7.006;2022-08-05T01:47:59;100629.91;;;23.10;100.00
14269;BME280;7218;51.480;7.006;2022-08-05T01:50:29;100631.78;;;23.08;100.00
14269;BME280;7218;51.480;7.006;2022-08-05T01:53:00;100641.50;;;23.09;100.00
14269;BME280;7218;51.480;7.006;2022-08-05T01:55:29;100650.72;;;23.04;100.00
14269;BME280;7218;51.480;7.006;2022-08-05T01:57:58;100644.31;;;23.06;100.00
14269;BME280;7218;51.480;7.006;2022-08-05T02:00:28;100647.09;;;23.05;100.00
14269;BME280;7218;51.480;7.006;2022-08-05T02:02:59;100648.16;;;23.02;100.00
14269;BME280;7218;51.480;7.006;2022-08-05T02:05:30;100666.88;;;23.01;100.00
14269;BME280;7218;51.480;7.006;2022-08-05T02:07:57;100667.28;;;22.95;100.00
14269;BME280;7218;51.480;7.006;2022-08-05T02:10:25;100684.28;;;22.92;100.00
14269;BME280;7218;51.480;7.006;2022-08-05T02:12:56;100696.63;;;22.93;100.00
14269;BME280;7218;51.480;7.006;2022-08-05T02:15:32;100714.94;;;22.98;100.00
14269;BME280;7218;51.480;7.006;2022-08-05T02:18:03;100731.56;;;23.01;99.71
14269;BME280;7218;51.480;7.006;2022-08-05T02:20:34;100749.91;;;22.92;100.00
14269;BME280;7218;51.480;7.006;2022-08-05T02:23:08;100752.84;;;22.87;99.91
14269;BME280;7218;51.480;7.006;2022-08-05T02:25:39;100761.91;;;22.85;100.00
14269;BME280;7218;51.480;7.006;2022-08-05T02:28:07;100757.34;;;23.01;98.84
14269;BME280;7218;51.480;7.006;2022-08-05T02:30:40;100752.69;;;22.90;97.75
14269;BME280;7218;51.480;7.006;2022-08-05T02:33:08;100758.09;;;22.89;99.83
14269;BME280;7218;51.480;7.006;2022-08-05T02:35:37;100753.66;;;22.75;97.79
14269;BME280;7218;51.480;7.006;2022-08-05T02:38:06;100747.19;;;22.79;100.00
14269;BME280;7218;51.480;7.006;2022-08-05T02:40:34;100740.25;;;22.91;99.83
14269;BME280;7218;51.480;7.006;2022-08-05T02:43:01;100725.22;;;23.04;98.96
14269;BME280;7218;51.480;7.006;2022-08-05T02:45:28;100715.41;;;23.04;100.00
14269;BME280;7218;51.480;7.006;2022-08-05T02:48:00;100724.66;;;22.99;99.67
14269;BME280;7218;51.480;7.006;2022-08-05T02:50:27;100731.88;;;22.83;100.00
14269;BME280;7218;51.480;7.006;2022-08-05T02:52:55;100731.78;;;22.70;100.00
14269;BME280;7218;51.480;7.006;2022-08-05T02:55:23;100729.03;;;22.71;100.00
14269;BME280;7218;51.480;7.006;2022-08-05T02:57:50;100732.66;;;22.70;100.00
14269;BME280;7218;51.480;7.006;2022-08-05T03:00:18;100725.69;;;22.68;100.00
14269;BME280;7218;51.480;7.006;2022-08-05T03:02:46;100725.47;;;22.57;100.00
14269;BME280;7218;51.480;7.006;2022-08-05T03:05:14;100723.22;;;22.51;100.00
14269;BME280;7218;51.480;7.006;2022-08-05T03:07:42;100697.97;;;22.44;100.00
14269;BME280;7218;51.480;7.006;2022-08-05T03:10:09;100701.75;;;22.40;100.00
14269;BME280;7218;51.480;7.006;2022-08-05T03:12:37;100702.50;;;22.27;100.00
14269;BME280;7218;51.480;7.006;2022-08-05T03:15:05;100684.09;;;22.39;100.00
14269;BME280;7218;51.480;7.006;2022-08-05T03:17:32;100680.31;;;22.28;100.00
14269;BME280;7218;51.480;7.006;2022-08-05T03:19:59;100681.38;;;22.40;100.00
14269;BME280;7218;51.480;7.006;2022-08-05T03:22:27;100672.53;;;22.40;100.00
14269;BME280;7218;51.480;7.006;2022-08-05T03:24:54;100650.91;;;22.31;100.00
14269;BME280;7218;51.480;7.006;2022-08-05T03:27:22;100629.25;;;22.38;100.00
14269;BME280;7218;51.480;7.006;2022-08-05T03:29:49;100622.59;;;22.45;100.00
14269;BME280;7218;51.480;7.006;2022-08-05T03:32:16;100621.75;;;22.44;100.00
14269;BME280;7218;51.480;7.006;2022-08-05T03:34:44;100618.88;;;22.47;100.00
14269;BME280;7218;51.480;7.006;2022-08-05T03:37:11;100604.56;;;22.50;100.00
14269;BME280;7218;51.480;7.006;2022-08-05T03:39:50;100598.94;;;22.54;100.00
14269;BME280;7218;51.480;7.006;2022-08-05T03:42:17;100597.06;;;22.42;100.00
14269;BME280;7218;51.480;7.006;2022-08-05T03:44:43;100583.78;;;22.42;100.00
14269;BME280;7218;51.480;7.006;2022-08-05T03:47:10;100566.03;;;22.43;100.00
14269;BME280;7218;51.480;7.006;2022-08-05T03:49:36;100583.41;;;22.34;100.00
14269;BME280;7218;51.480;7.006;2022-08-05T03:52:07;100591.94;;;22.39;100.00
14269;BME280;7218;51.480;7.006;2022-08-05T03:54:42;100616.53;;;22.43;100.00
14269;BME280;7218;51.480;7.006;2022-08-05T03:57:12;100638.84;;;22.40;100.00
14269;BME280;7218;51.480;7.006;2022-08-05T03:59:41;100661.63;;;22.44;100.00
14269;BME280;7218;51.480;7.006;2022-08-05T04:02:09;100681.53;;;22.37;100.00
14269;BME280;7218;51.480;7.006;2022-08-05T04:04:37;100678.59;;;22.42;100.00
14269;BME280;7218;51.480;7.006;2022-08-05T04:07:05;100684.03;;;22.26;100.00
14269;BME280;7218;51.480;7.006;2022-08-05T04:09:32;100686.00;;;22.37;100.00
14269;BME280;7218;51.480;7.006;2022-08-05T04:12:00;100685.25;;;22.35;100.00
14269;BME280;7218;51.480;7.006;2022-08-05T04:14:27;100697.19;;;22.42;100.00
14269;BME280;7218;51.480;7.006;2022-08-05T04:16:54;100695.59;;;22.39;100.00
14269;BME280;7218;51.480;7.006;2022-08-05T04:19:21;100702.41;;;22.43;100.00
14269;BME280;7218;51.480;7.006;2022-08-05T04:21:47;100697.59;;;22.36;100.00
14269;BME280;7218;51.480;7.006;2022-08-05T04:24:14;100691.88;;;22.42;100.00
14269;BME280;7218;51.480;7.006;2022-08-05T04:26:40;100707.25;;;22.37;100.00
14269;BME280;7218;51.480;7.006;2022-08-05T04:29:08;100713.72;;;22.32;100.00
14269;BME280;7218;51.480;7.006;2022-08-05T04:31:35;100715.19;;;22.08;100.00
14269;BME280;7218;51.480;7.006;2022-08-05T04:34:02;100708.00;;;22.24;100.00
14269;BME280;7218;51.480;7.006;2022-08-05T04:36:28;100697.38;;;22.24;100.00
14269;BME280;7218;51.480;7.006;2022-08-05T04:38:54;100683.81;;;22.29;100.00
14269;BME280;7218;51.480;7.006;2022-08-05T04:41:21;100667.50;;;22.35;100.00
14269;BME280;7218;51.480;7.006;2022-08-05T04:43:48;100662.38;;;22.32;100.00
14269;BME280;7218;51.480;7.006;2022-08-05T04:46:16;100687.06;;;22.34;100.00
14269;BME280;7218;51.480;7.006;2022-08-05T04:48:42;100695.09;;;22.32;100.00
14269;BME280;7218;51.480;7.006;2022-08-05T04:51:08;100691.13;;;22.40;100.00
14269;BME280;7218;51.480;7.006;2022-08-05T04:53:37;100683.44;;;22.35;100.00
14269;BME280;7218;51.480;7.006;2022-08-05T04:56:04;100669.31;;;22.35;100.00
14269;BME280;7218;51.480;7.006;2022-08-05T04:58:30;100677.00;;;22.39;100.00
14269;BME280;7218;51.480;7.006;2022-08-05T05:00:57;100674.34;;;22.39;100.00
14269;BME280;7218;51.480;7.006;2022-08-05T05:03:25;100677.00;;;22.39;100.00
14269;BME280;7218;51.480;7.006;2022-08-05T05:05:51;100668.94;;;22.41;100.00
14269;BME280;7218;51.480;7.006;2022-08-05T05:08:18;100660.38;;;22.36;100.00
14269;BME280;7218;51.480;7.006;2022-08-05T05:10:45;100667.59;;;22.33;100.00
14269;BME280;7218;51.480;7.006;2022-08-05T05:13:14;100660.47;;;22.34;100.00
14269;BME280;7218;51.480;7.006;2022-08-05T05:15:41;100662.19;;;22.35;100.00
14269;BME280;7218;51.480;7.006;2022-08-05T05:18:11;100653.56;;;22.46;100.00
14269;BME280;7218;51.480;7.006;2022-08-05T05:20:41;100652.13;;;22.54;100.00
14269;BME280;7218;51.480;7.006;2022-08-05T05:23:08;100659.78;;;22.59;100.00
14269;BME280;7218;51.480;7.006;2022-08-05T05:25:35;100668.16;;;22.53;100.00
14269;BME280;7218;51.480;7.006;2022-08-05T05:28:02;100674.69;;;22.47;100.00
14269;BME280;7218;51.480;7.006;2022-08-05T05:30:28;100689.41;;;22.53;100.00
14269;BME280;7218;51.480;7.006;2022-08-05T05:32:55;100691.13;;;22.54;100.00
14269;BME280;7218;51.480;7.006;2022-08-05T05:35:21;100670.22;;;22.62;100.00
14269;BME280;7218;51.480;7.006;2022-08-05T05:37:51;100670.44;;;22.73;100.00
14269;BME280;7218;51.480;7.006;2022-08-05T05:40:18;100690.66;;;22.61;100.00
14269;BME280;7218;51.480;7.006;2022-08-05T05:42:46;100690.38;;;22.66;100.00
14269;BME280;7218;51.480;7.006;2022-08-05T05:45:13;100690.78;;;22.74;100.00
14269;BME280;7218;51.480;7.006;2022-08-05T05:47:40;100690.13;;;22.70;100.00
14269;BME280;7218;51.480;7.006;2022-08-05T05:50:07;100698.91;;;22.57;100.00
14269;BME280;7218;51.480;7.006;2022-08-05T05:52:34;100701.97;;;22.65;100.00
14269;BME280;7218;51.480;7.006;2022-08-05T05:55:04;100698.09;;;22.70;100.00
14269;BME280;7218;51.480;7.006;2022-08-05T05:57:31;100705.88;;;22.73;100.00
14269;BME280;7218;51.480;7.006;2022-08-05T06:02:24;100705.19;;;22.56;100.00
14269;BME280;7218;51.480;7.006;2022-08-05T06:04:50;100715.78;;;22.42;100.00
14269;BME280;7218;51.480;7.006;2022-08-05T06:07:17;100720.81;;;22.32;100.00
14269;BME280;7218;51.480;7.006;2022-08-05T06:09:43;100725.47;;;22.28;100.00
14269;BME280;7218;51.480;7.006;2022-08-05T06:12:11;100733.00;;;22.36;100.00
14269;BME280;7218;51.480;7.006;2022-08-05T06:14:39;100730.00;;;22.12;100.00
14269;BME280;7218;51.480;7.006;2022-08-05T06:17:09;100726.69;;;22.09;100.00
14269;BME280;7218;51.480;7.006;2022-08-05T06:19:38;100738.38;;;22.20;100.00
14269;BME280;7218;51.480;7.006;2022-08-05T06:22:06;100744.56;;;22.21;100.00
14269;BME280;7218;51.480;7.006;2022-08-05T06:24:34;100746.13;;;22.09;100.00
14269;BME280;7218;51.480;7.006;2022-08-05T06:27:05;100744.53;;;21.91;100.00
14269;BME280;7218;51.480;7.006;2022-08-05T06:29:51;100751.91;;;21.86;100.00
14269;BME280;7218;51.480;7.006;2022-08-05T06:32:18;100747.19;;;21.91;100.00
14269;BME280;7218;51.480;7.006;2022-08-05T06:34:45;100725.59;;;21.97;100.00
14269;BME280;7218;51.480;7.006;2022-08-05T06:37:11;100743.47;;;21.64;100.00
14269;BME280;7218;51.480;7.006;2022-08-05T06:39:38;100747.53;;;21.85;100.00
14269;BME280;7218;51.480;7.006;2022-08-05T06:42:05;100757.66;;;21.94;100.00
14269;BME280;7218;51.480;7.006;2022-08-05T06:44:31;100761.09;;;21.96;100.00
14269;BME280;7218;51.480;7.006;2022-08-05T06:46:59;100770.00;;;21.79;100.00
14269;BME280;7218;51.480;7.006;2022-08-05T06:49:25;100766.56;;;21.77;100.00
14269;BME280;7218;51.480;7.006;2022-08-05T06:51:52;100773.78;;;21.75;100.00
14269;BME280;7218;51.480;7.006;2022-08-05T06:54:18;100786.59;;;21.83;100.00
14269;BME280;7218;51.480;7.006;2022-08-05T06:56:45;100788.50;;;21.81;100.00
14269;BME280;7218;51.480;7.006;2022-08-05T06:59:11;100804.94;;;21.72;100.00
14269;BME280;7218;51.480;7.006;2022-08-05T07:01:38;100794.50;;;21.69;100.00
14269;BME280;7218;51.480;7.006;2022-08-05T07:04:06;100784.72;;;21.85;100.00
14269;BME280;7218;51.480;7.006;2022-08-05T07:06:33;100798.66;;;21.88;100.00
14269;BME280;7218;51.480;7.006;2022-08-05T07:08:59;100795.50;;;21.82;100.00
14269;BME280;7218;51.480;7.006;2022-08-05T07:11:26;100781.38;;;21.97;100.00
14269;BME280;7218;51.480;7.006;2022-08-05T07:13:55;100795.44;;;21.99;100.00
14269;BME280;7218;51.480;7.006;2022-08-05T07:16:39;100795.84;;;21.92;100.00
14269;BME280;7218;51.480;7.006;2022-08-05T07:19:16;100793.09;;;22.09;100.00
14269;BME280;7218;51.480;7.006;2022-08-05T07:21:44;100793.41;;;22.18;100.00
14269;BME280;7218;51.480;7.006;2022-08-05T07:24:10;100798.34;;;22.24;100.00
14269;BME280;7218;51.480;7.006;2022-08-05T07:26:37;100803.00;;;22.21;100.00
14269;BME280;7218;51.480;7.006;2022-08-05T07:29:03;100803.97;;;22.04;100.00
14269;BME280;7218;51.480;7.006;2022-08-05T07:31:30;100795.13;;;22.19;100.00
14269;BME280;7218;51.480;7.006;2022-08-05T07:33:56;100797.38;;;22.11;100.00
14269;BME280;7218;51.480;7.006;2022-08-05T07:36:25;100808.75;;;22.13;99.76
14269;BME280;7218;51.480;7.006;2022-08-05T07:38:52;100811.75;;;22.07;100.00
14269;BME280;7218;51.480;7.006;2022-08-05T07:41:20;100829.50;;;21.91;99.12
14269;BME280;7218;51.480;7.006;2022-08-05T07:43:47;100842.81;;;21.75;98.26
14269;BME280;7218;51.480;7.006;2022-08-05T07:46:14;100857.19;;;21.56;99.67
14269;BME280;7218;51.480;7.006;2022-08-05T07:48:40;100866.25;;;21.67;99.95
14269;BME280;7218;51.480;7.006;2022-08-05T07:51:07;100863.63;;;21.52;100.00
14269;BME280;7218;51.480;7.006;2022-08-05T07:53:35;100857.53;;;21.50;99.08
14269;BME280;7218;51.480;7.006;2022-08-05T07:56:01;100844.94;;;21.53;100.00
14269;BME280;7218;51.480;7.006;2022-08-05T07:58:28;100842.47;;;21.66;100.00
14269;BME280;7218;51.480;7.006;2022-08-05T08:00:54;100846.91;;;21.65;100.00
14269;BME280;7218;51.480;7.006;2022-08-05T08:03:21;100850.16;;;21.86;100.00
14269;BME280;7218;51.480;7.006;2022-08-05T08:05:48;100851.63;;;21.76;100.00
14269;BME280;7218;51.480;7.006;2022-08-05T08:08:15;100862.50;;;21.71;100.00
14269;BME280;7218;51.480;7.006;2022-08-05T08:10:43;100872.00;;;21.60;100.00
14269;BME280;7218;51.480;7.006;2022-08-05T08:13:10;100867.03;;;21.54;100.00
14269;BME280;7218;51.480;7.006;2022-08-05T08:15:36;100876.09;;;21.50;100.00
14269;BME280;7218;51.480;7.006;2022-08-05T08:18:03;100886.47;;;21.54;100.00
14269;BME280;7218;51.480;7.006;2022-08-05T08:20:29;100894.69;;;21.50;100.00
14269;BME280;7218;51.480;7.006;2022-08-05T08:22:57;100893.16;;;21.45;100.00
14269;BME280;7218;51.480;7.006;2022-08-05T08:25:24;100901.47;;;21.71;100.00
14269;BME280;7218;51.480;7.006;2022-08-05T08:27:54;100900.50;;;21.40;98.56
14269;BME280;7218;51.480;7.006;2022-08-05T08:30:21;100908.19;;;21.45;99.51
14269;BME280;7218;51.480;7.006;2022-08-05T08:32:47;100905.13;;;21.53;99.95
14269;BME280;7218;51.480;7.006;2022-08-05T08:35:13;100917.25;;;21.25;98.83
14269;BME280;7218;51.480;7.006;2022-08-05T08:37:40;100911.41;;;21.52;100.00
14269;BME280;7218;51.480;7.006;2022-08-05T08:40:07;100901.63;;;21.68;100.00
14269;BME280;7218;51.480;7.006;2022-08-05T08:42:35;100907.03;;;21.66;100.00
14269;BME280;7218;51.480;7.006;2022-08-05T08:45:03;100907.19;;;21.79;99.47
14269;BME280;7218;51.480;7.006;2022-08-05T08:47:30;100913.63;;;21.59;100.00
14269;BME280;7218;51.480;7.006;2022-08-05T08:49:57;100919.00;;;21.58;99.31
14269;BME280;7218;51.480;7.006;2022-08-05T08:52:31;100926.53;;;21.50;99.70
14269;BME280;7218;51.480;7.006;2022-08-05T08:55:00;100931.34;;;21.59;100.00
14269;BME280;7218;51.480;7.006;2022-08-05T08:57:27;100929.78;;;21.55;99.41
14269;BME280;7218;51.480;7.006;2022-08-05T08:59:55;100920.22;;;21.68;98.62
14269;BME280;7218;51.480;7.006;2022-08-05T09:02:25;100921.41;;;21.78;99.70
14269;BME280;7218;51.480;7.006;2022-08-05T09:04:51;100921.94;;;21.84;98.26
14269;BME280;7218;51.480;7.006;2022-08-05T09:07:18;100921.91;;;22.02;98.06
14269;BME280;7218;51.480;7.006;2022-08-05T09:09:44;100932.47;;;22.17;98.90
14269;BME280;7218;51.480;7.006;2022-08-05T09:12:11;100940.19;;;22.22;96.98
14269;BME280;7218;51.480;7.006;2022-08-05T09:14:38;100940.31;;;22.20;97.46
14269;BME280;7218;51.480;7.006;2022-08-05T09:17:05;100949.53;;;22.13;98.08
14269;BME280;7218;51.480;7.006;2022-08-05T09:19:34;100944.50;;;22.09;95.91
14269;BME280;7218;51.480;7.006;2022-08-05T09:22:01;100948.00;;;22.09;97.81
14269;BME280;7218;51.480;7.006;2022-08-05T09:24:28;100941.81;;;21.93;96.79
14269;BME280;7218;51.480;7.006;2022-08-05T09:26:56;100947.75;;;21.98;100.00
14269;BME280;7218;51.480;7.006;2022-08-05T09:29:36;100943.97;;;22.02;99.60
14269;BME280;7218;51.480;7.006;2022-08-05T09:32:05;100942.63;;;22.26;99.93
14269;BME280;7218;51.480;7.006;2022-08-05T09:34:47;100942.13;;;22.50;97.63
14269;BME280;7218;51.480;7.006;2022-08-05T09:37:17;100950.78;;;22.53;96.55
14269;BME280;7218;51.480;7.006;2022-08-05T09:39:44;100951.41;;;22.43;96.63
14269;BME280;7218;51.480;7.006;2022-08-05T09:42:12;100960.31;;;22.42;96.13
14269;BME280;7218;51.480;7.006;2022-08-05T09:44:41;100972.84;;;22.40;98.58
14269;BME280;7218;51.480;7.006;2022-08-05T09:47:10;100984.00;;;22.30;96.58
14269;BME280;7218;51.480;7.006;2022-08-05T09:49:42;100989.47;;;22.27;95.08
14269;BME280;7218;51.480;7.006;2022-08-05T09:52:18;100997.44;;;22.27;97.08
14269;BME280;7218;51.480;7.006;2022-08-05T09:54:53;100987.59;;;22.29;98.34
14269;BME280;7218;51.480;7.006;2022-08-05T09:57:31;100990.84;;;22.35;96.82
14269;BME280;7218;51.480;7.006;2022-08-05T09:59:58;100999.50;;;22.22;94.45
14269;BME280;7218;51.480;7.006;2022-08-05T10:02:33;101005.34;;;22.45;95.54
14269;BME280;7218;51.480;7.006;2022-08-05T10:05:09;101010.53;;;22.62;94.23
14269;BME280;7218;51.480;7.006;2022-08-05T10:07:45;101002.66;;;22.76;91.64
14269;BME280;7218;51.480;7.006;2022-08-05T10:10:11;101011.84;;;23.00;92.57
14269;BME280;7218;51.480;7.006;2022-08-05T10:12:39;101011.63;;;23.19;90.52
14269;BME280;7218;51.480;7.006;2022-08-05T10:15:14;101021.78;;;23.27;88.70
14269;BME280;7218;51.480;7.006;2022-08-05T10:17:41;101032.47;;;23.41;87.40
14269;BME280;7218;51.480;7.006;2022-08-05T10:20:08;101036.72;;;23.59;87.09
14269;BME280;7218;51.480;7.006;2022-08-05T10:22:38;101039.34;;;24.01;86.49
14269;BME280;7218;51.480;7.006;2022-08-05T10:25:07;101030.47;;;24.43;83.91
14269;BME280;7218;51.480;7.006;2022-08-05T10:27:34;101039.13;;;24.74;82.77
14269;BME280;7218;51.480;7.006;2022-08-05T10:30:00;101034.53;;;24.49;79.63
14269;BME280;7218;51.480;7.006;2022-08-05T10:32:27;101044.50;;;24.86;nan
14269;BME280;7218;51.480;7.006;2022-08-05T10:34:54;101052.72;;;25.23;76.02
14269;BME280;7218;51.480;7.006;2022-08-05T10:37:23;101054.34;;;25.25;78.60
14269;BME280;7218;51.480;7.006;2022-08-05T10:39:51;101051.78;;;25.24;76.50
14269;BME280;7218;51.480;7.006;2022-08-05T10:42:22;101050.56;;;25.55;76.35
14269;BME280;7218;51.480;7.006;2022-08-05T10:44:53;101059.41;;;25.81;74.22
14269;BME280;7218;51.480;7.006;2022-08-05T10:47:30;101065.03;;;25.38;70.33
14269;BME280;7218;51.480;7.006;2022-08-05T10:50:03;101062.06;;;25.81;68.12
14269;BME280;7218;51.480;7.006;2022-08-05T10:52:39;101062.38;;;26.14;72.22
14269;BME280;7218;51.480;7.006;2022-08-05T10:55:08;101068.84;;;26.48;73.13
14269;BME280;7218;51.480;7.006;2022-08-05T10:57:36;101082.63;;;26.54;62.92
14269;BME280;7218;51.480;7.006;2022-08-05T11:00:10;101077.47;;;26.64;65.42
14269;BME280;7218;51.480;7.006;2022-08-05T11:02:37;101073.09;;;26.50;65.46
14269;BME280;7218;51.480;7.006;2022-08-05T11:05:07;101082.75;;;26.89;63.68
14269;BME280;7218;51.480;7.006;2022-08-05T11:07:34;101081.19;;;27.68;67.70
14269;BME280;7218;51.480;7.006;2022-08-05T11:10:00;101071.25;;;28.14;59.15
14269;BME280;7218;51.480;7.006;2022-08-05T11:12:44;101067.09;;;28.21;61.95
14269;BME280;7218;51.480;7.006;2022-08-05T11:15:19;101063.00;;;28.72;60.72
14269;BME280;7218;51.480;7.006;2022-08-05T11:17:47;101079.44;;;29.10;59.15
14269;BME280;7218;51.480;7.006;2022-08-05T11:20:38;101074.22;;;29.29;54.84
14269;BME280;7218;51.480;7.006;2022-08-05T11:23:30;101076.41;;;28.60;53.11
14269;BME280;7218;51.480;7.006;2022-08-05T11:26:02;101077.66;;;28.45;56.36
14269;BME280;7218;51.480;7.006;2022-08-05T11:28:45;101082.31;;;28.32;60.17
14269;BME280;7218;51.480;7.006;2022-08-05T11:31:19;101074.94;;;28.79;59.88
14269;BME280;7218;51.480;7.006;2022-08-05T11:33:55;101083.16;;;28.98;56.69
14269;BME280;7218;51.480;7.006;2022-08-05T11:39:47;101087.44;;;29.53;57.63
14269;BME280;7218;51.480;7.006;2022-08-05T11:42:15;101080.13;;;30.46;52.76
14269;BME280;7218;51.480;7.006;2022-08-05T11:44:43;101081.34;;;31.20;51.51
14269;BME280;7218;51.480;7.006;2022-08-05T11:47:11;101086.81;;;31.77;43.68
14269;BME280;7218;51.480;7.006;2022-08-05T11:49:38;101085.00;;;29.91;46.61
14269;BME280;7218;51.480;7.006;2022-08-05T11:52:05;101093.91;;;29.92;46.53
14269;BME280;7218;51.480;7.006;2022-08-05T11:54:31;101087.50;;;29.63;52.47
14269;BME280;7218;51.480;7.006;2022-08-05T11:56:59;101087.66;;;30.22;49.06
14269;BME280;7218;51.480;7.006;2022-08-05T11:59:28;101095.41;;;31.05;48.69
14269;BME280;7218;51.480;7.006;2022-08-05T12:01:58;101093.84;;;31.22;45.99
14269;BME280;7218;51.480;7.006;2022-08-05T12:04:26;101102.06;;;31.10;47.18
14269;BME280;7218;51.480;7.006;2022-08-05T12:06:54;101104.75;;;31.10;44.25
14269;BME280;7218;51.480;7.006;2022-08-05T12:09:23;101105.00;;;31.55;44.70
14269;BME280;7218;51.480;7.006;2022-08-05T12:11:51;101100.25;;;32.87;46.25
14269;BME280;7218;51.480;7.006;2022-08-05T12:14:18;101101.72;;;32.27;41.59
14269;BME280;7218;51.480;7.006;2022-08-05T12:16:44;101095.44;;;32.54;44.19
14269;BME280;7218;51.480;7.006;2022-08-05T12:19:14;101092.56;;;32.38;43.65
14269;BME280;7218;51.480;7.006;2022-08-05T12:21:43;101093.00;;;32.61;40.52
14269;BME280;7218;51.480;7.006;2022-08-05T12:24:12;101098.41;;;33.67;41.41
14269;BME280;7218;51.480;7.006;2022-08-05T12:26:41;101092.97;;;34.61;36.28
14269;BME280;7218;51.480;7.006;2022-08-05T12:29:11;101098.56;;;34.67;36.09
14269;BME280;7218;51.480;7.006;2022-08-05T12:31:39;101106.78;;;33.56;36.80
14269;BME280;7218;51.480;7.006;2022-08-05T12:34:07;101106.44;;;32.43;38.60
14269;BME280;7218;51.480;7.006;2022-08-05T12:36:35;101112.84;;;32.15;38.85
14269;BME280;7218;51.480;7.006;2022-08-05T12:39:03;101108.06;;;33.26;39.14
14269;BME280;7218;51.480;7.006;2022-08-05T12:41:32;101111.56;;;33.09;40.34
14269;BME280;7218;51.480;7.006;2022-08-05T12:44:01;101114.47;;;33.25;40.75
14269;BME280;7218;51.480;7.006;2022-08-05T12:46:29;101127.69;;;32.28;38.75
14269;BME280;7218;51.480;7.006;2022-08-05T12:48:59;101123.41;;;30.73;41.96
14269;BME280;7218;51.480;7.006;2022-08-05T12:51:26;101133.13;;;29.94;44.60
14269;BME280;7218;51.480;7.006;2022-08-05T12:53:59;101134.19;;;28.98;47.44
14269;BME280;7218;51.480;7.006;2022-08-05T12:56:26;101147.84;;;27.95;47.26
14269;BME280;7218;51.480;7.006;2022-08-05T12:59:10;101144.50;;;27.58;50.18
14269;BME280;7218;51.480;7.006;2022-08-05T13:01:36;101149.13;;;27.32;50.54
14269;BME280;7218;51.480;7.006;2022-08-05T13:04:03;101158.94;;;27.79;48.95
14269;BME280;7218;51.480;7.006;2022-08-05T13:06:30;101153.41;;;29.57;45.92
14269;BME280;7218;51.480;7.006;2022-08-05T13:09:05;101157.09;;;31.46;39.02
14269;BME280;7218;51.480;7.006;2022-08-05T13:11:31;101149.22;;;33.55;36.93